sensor_id;sensor_type;location;lat;lon;timestamp;pressure;altitude;pressure_sealevel;temperature;humidity
83941;BME280;73976;68.386;23.636;2024-02-14T07:39:32;98345.03;;;-19.74;79.36
83941;BME280;73976;68.386;23.636;2024-02-14T07:42:03;98331.59;;;-19.65;79.04
83941;BME280;73976;68.386;23.636;2024-02-14T07:44:31;98311.50;;;-19.65;79.40
83941;BME280;73976;68.386;23.636;2024-02-14T07:47:00;98330.78;;;-19.45;79.97
83941;BME280;73976;68.386;23.636;2024-02-14T07:49:31;98329.94;;;-19.30;80.18
83941;BME280;73976;68.386;23.636;2024-02-14T07:51:59;98315.69;;;-19.31;80.33
83941;BME280;73976;68.386;23.636;2024-02-14T07:54:28;98300.56;;;-19.25;80.21
83941;BME280;73976;68.386;23.636;2024-02-14T07:56:56;98307.22;;;-19.03;80.28
83941;BME280;73976;68.386;23.636;2024-02-14T07:59:24;98287.97;;;-19.09;80.25
83941;BME280;73976;68.386;23.636;2024-02-14T08:01:54;98314.72;;;-18.84;79.68
83941;BME280;73976;68.386;23.636;2024-02-14T08:04:24;98303.81;;;-18.81;79.78
83941;BME280;73976;68.386;23.636;2024-02-14T08:06:52;98309.66;;;-18.75;79.68
83941;BME280;73976;68.386;23.636;2024-02-14T08:09:20;98328.91;;;-18.57;78.67
83941;BME280;73976;68.386;23.636;2024-02-14T08:11:48;98316.31;;;-18.60;78.35
83941;BME280;73976;68.386;23.636;2024-02-14T08:14:20;98300.44;;;-18.71;78.17
83941;BME280;73976;68.386;23.636;2024-02-14T08:16:48;98313.78;;;-18.57;78.12
83941;BME280;73976;68.386;23.636;2024-02-14T08:19:17;98322.13;;;-18.43;77.90
83941;BME280;73976;68.386;23.636;2024-02-14T08:21:46;98273.53;;;-18.66;78.23
83941;BME280;73976;68.386;23.636;2024-02-14T08:24:14;98283.53;;;-18.48;77.49
83941;BME280;73976;68.386;23.636;2024-02-14T08:26:43;98308.59;;;-18.30;77.18
83941;BME280;73976;68.386;23.636;2024-02-14T08:29:11;98303.50;;;-18.18;77.17
83941;BME280;73976;68.386;23.636;2024-02-14T08:31:41;98294.28;;;-18.21;77.25
83941;BME280;73976;68.386;23.636;2024-02-14T08:34:09;98208.09;;;-18.63;77.14
83941;BME280;73976;68.386;23.636;2024-02-14T08:36:37;98315.94;;;-17.91;77.02
83941;BME280;73976;68.386;23.636;2024-02-14T08:39:09;98288.22;;;-17.94;77.43
83941;BME280;73976;68.386;23.636;2024-02-14T08:41:39;98295.72;;;-17.82;76.92
83941;BME280;73976;68.386;23.636;2024-02-14T08:44:11;98295.66;;;-17.76;77.12
83941;BME280;73976;68.386;23.636;2024-02-14T08:46:39;98309.03;;;-17.65;76.76
83941;BME280;73976;68.386;23.636;2024-02-14T08:49:10;98290.53;;;-17.64;76.68
83941;BME280;73976;68.386;23.636;2024-02-14T08:51:39;98269.59;;;-17.72;76.52
83941;BME280;73976;68.386;23.636;2024-02-14T08:54:07;98290.47;;;-17.56;76.09
83941;BME280;73976;68.386;23.636;2024-02-14T08:56:36;98270.34;;;-17.62;76.06
83941;BME280;73976;68.386;23.636;2024-02-14T08:59:04;98263.59;;;-17.57;75.97
83941;BME280;73976;68.386;23.636;2024-02-14T09:01:34;98274.44;;;-17.46;76.99
83941;BME280;73976;68.386;23.636;2024-02-14T09:04:04;98286.03;;;-17.32;76.39
83941;BME280;73976;68.386;23.636;2024-02-14T09:06:32;98278.41;;;-17.27;76.65
83941;BME280;73976;68.386;23.636;2024-02-14T09:09:01;98260.75;;;-17.26;76.31
83941;BME280;73976;68.386;23.636;2024-02-14T09:11:29;98260.72;;;-17.24;75.98
83941;BME280;73976;68.386;23.636;2024-02-14T09:13:57;98247.28;;;-17.25;75.57
83941;BME280;73976;68.386;23.636;2024-02-14T09:16:35;98257.38;;;-17.28;75.53
83941;BME280;73976;68.386;23.636;2024-02-14T09:19:03;98277.38;;;-17.07;75.42
83941;BME280;73976;68.386;23.636;2024-02-14T09:21:34;98261.44;;;-17.10;75.43
83941;BME280;73976;68.386;23.636;2024-02-14T09:24:05;98270.72;;;-17.14;75.28
83941;BME280;73976;68.386;23.636;2024-02-14T09:26:34;98290.72;;;-16.96;75.65
83941;BME280;73976;68.386;23.636;2024-02-14T09:29:02;98271.47;;;-17.04;75.97
83941;BME280;73976;68.386;23.636;2024-02-14T09:31:31;98242.19;;;-17.20;75.33
83941;BME280;73976;68.386;23.636;2024-02-14T09:33:59;98243.78;;;-17.12;74.93
83941;BME280;73976;68.386;23.636;2024-02-14T09:36:27;98250.47;;;-17.08;76.11
83941;BME280;73976;68.386;23.636;2024-02-14T09:38:56;98263.91;;;-17.04;75.40
83941;BME280;73976;68.386;23.636;2024-02-14T09:41:31;98295.69;;;-16.87;76.07
83941;BME280;73976;68.386;23.636;2024-02-14T09:44:04;98268.88;;;-16.97;75.50
83941;BME280;73976;68.386;23.636;2024-02-14T09:46:35;98257.88;;;-16.93;75.50
83941;BME280;73976;68.386;23.636;2024-02-14T09:49:05;98252.00;;;-16.95;75.77
83941;BME280;73976;68.386;23.636;2024-02-14T09:51:34;98282.91;;;-16.73;75.24
83941;BME280;73976;68.386;23.636;2024-02-14T09:54:04;98242.69;;;-16.88;76.11
83941;BME280;73976;68.386;23.636;2024-02-14T09:56:33;98223.44;;;-16.97;75.75
83941;BME280;73976;68.386;23.636;2024-02-14T09:59:02;98271.03;;;-16.65;75.54
83941;BME280;73976;68.386;23.636;2024-02-14T10:01:31;98268.47;;;-16.61;76.13
83941;BME280;73976;68.386;23.636;2024-02-14T10:03:59;98240.94;;;-16.82;76.63
83941;BME280;73976;68.386;23.636;2024-02-14T10:06:27;98235.03;;;-16.82;75.48
83941;BME280;73976;68.386;23.636;2024-02-14T10:08:55;98240.06;;;-16.81;76.44
83941;BME280;73976;68.386;23.636;2024-02-14T10:11:31;98273.50;;;-16.59;76.07
83941;BME280;73976;68.386;23.636;2024-02-14T10:14:00;98220.78;;;-16.86;76.11
83941;BME280;73976;68.386;23.636;2024-02-14T10:16:32;98226.50;;;-16.74;75.85
83941;BME280;73976;68.386;23.636;2024-02-14T10:19:00;98226.38;;;-16.65;75.51
83941;BME280;73976;68.386;23.636;2024-02-14T10:21:29;98224.72;;;-16.66;75.63
83941;BME280;73976;68.386;23.636;2024-02-14T10:24:02;98235.53;;;-16.53;75.00
83941;BME280;73976;68.386;23.636;2024-02-14T10:26:30;98214.56;;;-16.60;75.28
83941;BME280;73976;68.386;23.636;2024-02-14T10:28:59;98222.91;;;-16.55;75.40
83941;BME280;73976;68.386;23.636;2024-02-14T10:31:28;98216.16;;;-16.56;76.30
83941;BME280;73976;68.386;23.636;2024-02-14T10:33:56;98244.50;;;-16.34;76.10
83941;BME280;73976;68.386;23.636;2024-02-14T10:36:25;98211.03;;;-16.50;75.71
83941;BME280;73976;68.386;23.636;2024-02-14T10:38:54;98218.56;;;-16.45;75.55
83941;BME280;73976;68.386;23.636;2024-02-14T10:41:26;98224.22;;;-16.31;75.42
83941;BME280;73976;68.386;23.636;2024-02-14T10:43:54;98224.16;;;-16.27;76.31
83941;BME280;73976;68.386;23.636;2024-02-14T10:46:23;98211.53;;;-16.27;76.70
83941;BME280;73976;68.386;23.636;2024-02-14T10:48:58;98198.91;;;-16.27;76.54
83941;BME280;73976;68.386;23.636;2024-02-14T10:51:30;98202.88;;;-16.12;76.58
83941;BME280;73976;68.386;23.636;2024-02-14T10:54:01;98230.31;;;-15.87;75.80
83941;BME280;73976;68.386;23.636;2024-02-14T10:56:31;98195.00;;;-15.93;75.52
83941;BME280;73976;68.386;23.636;2024-02-14T10:59:04;98204.13;;;-15.82;75.98
83941;BME280;73976;68.386;23.636;2024-02-14T11:01:34;98185.69;;;-15.89;75.49
83941;BME280;73976;68.386;23.636;2024-02-14T11:04:04;98199.91;;;-15.84;75.67
83941;BME280;73976;68.386;23.636;2024-02-14T11:06:47;98204.03;;;-15.76;75.54
83941;BME280;73976;68.386;23.636;2024-02-14T11:09:15;98180.56;;;-15.86;76.09
83941;BME280;73976;68.386;23.636;2024-02-14T11:11:47;98219.78;;;-15.62;75.62
83941;BME280;73976;68.386;23.636;2024-02-14T11:14:17;98220.69;;;-15.65;75.64
83941;BME280;73976;68.386;23.636;2024-02-14T11:16:46;98185.69;;;-15.89;75.95
83941;BME280;73976;68.386;23.636;2024-02-14T11:19:15;98178.03;;;-15.86;76.52
83941;BME280;73976;68.386;23.636;2024-02-14T11:21:47;98198.91;;;-15.72;76.39
83941;BME280;73976;68.386;23.636;2024-02-14T11:24:17;98193.88;;;-15.73;76.74
83941;BME280;73976;68.386;23.636;2024-02-14T11:26:50;98214.69;;;-15.59;76.58
83941;BME280;73976;68.386;23.636;2024-02-14T11:29:29;98218.81;;;-15.52;76.47
83941;BME280;73976;68.386;23.636;2024-02-14T11:31:59;98212.03;;;-15.52;76.06
83941;BME280;73976;68.386;23.636;2024-02-14T11:34:30;98179.34;;;-15.64;75.96
83941;BME280;73976;68.386;23.636;2024-02-14T11:37:05;98177.66;;;-15.63;76.98
83941;BME280;73976;68.386;23.636;2024-02-14T11:39:34;98084.97;;;-16.15;76.21
83941;BME280;73976;68.386;23.636;2024-02-14T11:42:02;98202.44;;;-15.36;76.69
83941;BME280;73976;68.386;23.636;2024-02-14T11:44:30;98164.81;;;-15.53;77.16
83941;BME280;73976;68.386;23.636;2024-02-14T11:47:00;98055.47;;;-16.13;76.74
83941;BME280;73976;68.386;23.636;2024-02-14T11:49:28;98183.03;;;-15.34;77.11
83941;BME280;73976;68.386;23.636;2024-02-14T11:51:56;98196.28;;;-15.20;77.01
83941;BME280;73976;68.386;23.636;2024-02-14T11:54:24;98161.78;;;-15.27;77.00
83941;BME280;73976;68.386;23.636;2024-02-14T11:56:53;98182.72;;;-15.18;77.10
83941;BME280;73976;68.386;23.636;2024-02-14T11:59:20;98196.59;;;-14.94;76.71
83941;BME280;73976;68.386;23.636;2024-02-14T12:01:51;98172.34;;;-15.06;77.31
83941;BME280;73976;68.386;23.636;2024-02-14T12:04:20;98176.41;;;-14.97;77.24
83941;BME280;73976;68.386;23.636;2024-02-14T12:06:48;98181.03;;;-14.76;77.12
83941;BME280;73976;68.386;23.636;2024-02-14T12:09:16;98181.78;;;-14.71;76.55
83941;BME280;73976;68.386;23.636;2024-02-14T12:11:44;98204.22;;;-14.53;76.07
83941;BME280;73976;68.386;23.636;2024-02-14T12:14:15;98200.00;;;-14.53;75.54
83941;BME280;73976;68.386;23.636;2024-02-14T12:16:48;98169.13;;;-14.71;74.73
83941;BME280;73976;68.386;23.636;2024-02-14T12:19:16;98167.25;;;-14.63;74.98
83941;BME280;73976;68.386;23.636;2024-02-14T12:21:45;98174.56;;;-14.50;75.40
83941;BME280;73976;68.386;23.636;2024-02-14T12:24:14;98175.31;;;-14.46;74.35
83941;BME280;73976;68.386;23.636;2024-02-14T12:26:43;98183.53;;;-14.35;75.21
83941;BME280;73976;68.386;23.636;2024-02-14T12:29:12;98193.41;;;-14.23;75.09
83941;BME280;73976;68.386;23.636;2024-02-14T12:31:43;98176.91;;;-14.41;75.53
83941;BME280;73976;68.386;23.636;2024-02-14T12:34:11;98176.16;;;-14.46;75.46
83941;BME280;73976;68.386;23.636;2024-02-14T12:36:41;98188.59;;;-14.34;75.61
83941;BME280;73976;68.386;23.636;2024-02-14T12:39:09;98165.06;;;-14.40;75.83
83941;BME280;73976;68.386;23.636;2024-02-14T12:41:40;98174.31;;;-14.38;75.27
83941;BME280;73976;68.386;23.636;2024-02-14T12:44:08;98187.63;;;-14.30;75.96
83941;BME280;73976;68.386;23.636;2024-02-14T12:46:36;98175.19;;;-14.40;76.36
83941;BME280;73976;68.386;23.636;2024-02-14T12:49:06;98166.94;;;-14.48;76.30
83941;BME280;73976;68.386;23.636;2024-02-14T12:51:34;98156.03;;;-14.52;77.44
83941;BME280;73976;68.386;23.636;2024-02-14T12:54:06;98157.59;;;-14.46;77.16
83941;BME280;73976;68.386;23.636;2024-02-14T12:56:37;98137.66;;;-14.63;76.44
83941;BME280;73976;68.386;23.636;2024-02-14T12:59:05;98161.88;;;-14.48;76.97
83941;BME280;73976;68.386;23.636;2024-02-14T13:01:34;98157.78;;;-14.55;77.26
83941;BME280;73976;68.386;23.636;2024-02-14T13:04:02;98167.59;;;-14.40;77.69
83941;BME280;73976;68.386;23.636;2024-02-14T13:06:33;98148.31;;;-14.47;77.47
83941;BME280;73976;68.386;23.636;2024-02-14T13:09:02;98147.56;;;-14.52;76.77
83941;BME280;73976;68.386;23.636;2024-02-14T13:11:30;98138.19;;;-14.47;78.23
83941;BME280;73976;68.386;23.636;2024-02-14T13:13:59;98142.16;;;-14.37;77.78
83941;BME280;73976;68.386;23.636;2024-02-14T13:16:27;98139.69;;;-14.40;78.08
83941;BME280;73976;68.386;23.636;2024-02-14T13:18:56;98116.19;;;-14.45;77.93
83941;BME280;73976;68.386;23.636;2024-02-14T13:21:24;98150.94;;;-14.15;78.44
83941;BME280;73976;68.386;23.636;2024-02-14T13:23:52;98166.59;;;-13.98;77.75
83941;BME280;73976;68.386;23.636;2024-02-14T13:26:20;98138.19;;;-14.12;77.52
83941;BME280;73976;68.386;23.636;2024-02-14T13:28:49;98164.03;;;-13.98;77.82
83941;BME280;73976;68.386;23.636;2024-02-14T13:31:18;98141.59;;;-14.15;77.75
83941;BME280;73976;68.386;23.636;2024-02-14T13:33:46;98152.38;;;-14.05;78.22
83941;BME280;73976;68.386;23.636;2024-02-14T13:36:15;98155.38;;;-13.88;79.05
83941;BME280;73976;68.386;23.636;2024-02-14T13:38:44;98112.66;;;-14.05;78.54
83941;BME280;73976;68.386;23.636;2024-02-14T13:41:14;98118.22;;;-13.92;79.03
83941;BME280;73976;68.386;23.636;2024-02-14T13:43:42;98085.00;;;-14.15;78.77
83941;BME280;73976;68.386;23.636;2024-02-14T13:46:12;98106.72;;;-14.05;78.30
83941;BME280;73976;68.386;23.636;2024-02-14T13:48:41;98106.66;;;-14.02;78.15
83941;BME280;73976;68.386;23.636;2024-02-14T13:51:09;98125.00;;;-13.91;78.79
83941;BME280;73976;68.386;23.636;2024-02-14T13:53:37;98131.50;;;-13.81;79.46
83941;BME280;73976;68.386;23.636;2024-02-14T13:56:06;98090.03;;;-14.14;77.86
83941;BME280;73976;68.386;23.636;2024-02-14T13:58:35;98100.00;;;-14.06;78.31
83941;BME280;73976;68.386;23.636;2024-02-14T14:01:07;98106.63;;;-14.01;79.33
83941;BME280;73976;68.386;23.636;2024-02-14T14:03:35;98105.78;;;-14.01;80.27
83941;BME280;73976;68.386;23.636;2024-02-14T14:06:04;98086.31;;;-14.01;80.27
83941;BME280;73976;68.386;23.636;2024-02-14T14:08:36;98098.75;;;-13.90;80.25
83941;BME280;73976;68.386;23.636;2024-02-14T14:11:05;98089.50;;;-13.93;78.94
83941;BME280;73976;68.386;23.636;2024-02-14T14:13:33;98120.47;;;-13.80;79.13
83941;BME280;73976;68.386;23.636;2024-02-14T14:16:01;98133.66;;;-13.66;80.17
83941;BME280;73976;68.386;23.636;2024-02-14T14:18:29;98121.13;;;-13.72;80.05
83941;BME280;73976;68.386;23.636;2024-02-14T14:20:58;98127.78;;;-13.68;80.20
83941;BME280;73976;68.386;23.636;2024-02-14T14:23:26;98116.00;;;-13.70;79.40
83941;BME280;73976;68.386;23.636;2024-02-14T14:25:54;98099.28;;;-13.77;79.71
83941;BME280;73976;68.386;23.636;2024-02-14T14:28:23;98094.16;;;-13.76;79.47
83941;BME280;73976;68.386;23.636;2024-02-14T14:30:52;98077.47;;;-13.86;78.37
83941;BME280;73976;68.386;23.636;2024-02-14T14:33:24;98102.78;;;-13.83;79.34
83941;BME280;73976;68.386;23.636;2024-02-14T14:35:53;98104.63;;;-13.88;78.81
83941;BME280;73976;68.386;23.636;2024-02-14T14:38:22;98101.28;;;-13.90;79.34
83941;BME280;73976;68.386;23.636;2024-02-14T14:40:51;98098.00;;;-13.95;78.77
83941;BME280;73976;68.386;23.636;2024-02-14T14:43:35;98089.84;;;-14.06;79.12
83941;BME280;73976;68.386;23.636;2024-02-14T14:46:03;98126.50;;;-13.84;78.00
83941;BME280;73976;68.386;23.636;2024-02-14T14:48:31;98086.59;;;-14.11;79.51
83941;BME280;73976;68.386;23.636;2024-02-14T14:50:59;98103.34;;;-14.06;78.88
83941;BME280;73976;68.386;23.636;2024-02-14T14:53:28;98088.31;;;-14.13;79.45
83941;BME280;73976;68.386;23.636;2024-02-14T14:55:56;98131.72;;;-13.90;79.04
83941;BME280;73976;68.386;23.636;2024-02-14T14:58:25;98085.16;;;-14.21;78.43
83941;BME280;73976;68.386;23.636;2024-02-14T15:00:56;98090.13;;;-14.17;79.98
83941;BME280;73976;68.386;23.636;2024-02-14T15:03:26;98097.59;;;-14.12;80.13
83941;BME280;73976;68.386;23.636;2024-02-14T15:05:54;98124.22;;;-13.95;80.60
83941;BME280;73976;68.386;23.636;2024-02-14T15:08:23;98104.22;;;-14.07;80.34
83941;BME280;73976;68.386;23.636;2024-02-14T15:10:56;98120.06;;;-13.97;79.57
83941;BME280;73976;68.386;23.636;2024-02-14T15:13:25;98129.31;;;-13.95;79.31
83941;BME280;73976;68.386;23.636;2024-02-14T15:15:55;98100.06;;;-14.09;80.09
83941;BME280;73976;68.386;23.636;2024-02-14T15:18:25;98073.44;;;-14.25;80.64
83941;BME280;73976;68.386;23.636;2024-02-14T15:20:54;98100.06;;;-14.09;79.87
83941;BME280;73976;68.386;23.636;2024-02-14T15:23:22;98075.72;;;-14.16;79.98
83941;BME280;73976;68.386;23.636;2024-02-14T15:25:51;98100.59;;;-13.97;79.63
83941;BME280;73976;68.386;23.636;2024-02-14T15:28:19;98051.44;;;-14.25;79.69
83941;BME280;73976;68.386;23.636;2024-02-14T15:30:54;98093.25;;;-14.07;80.39
83941;BME280;73976;68.386;23.636;2024-02-14T15:33:40;98113.97;;;-13.90;80.69
83941;BME280;73976;68.386;23.636;2024-02-14T15:36:10;98087.34;;;-14.08;79.74
83941;BME280;73976;68.386;23.636;2024-02-14T15:38:43;98087.34;;;-14.08;80.10
83941;BME280;73976;68.386;23.636;2024-02-14T15:41:14;98093.97;;;-14.02;79.39
83941;BME280;73976;68.386;23.636;2024-02-14T15:43:42;98109.72;;;-13.90;80.33
83941;BME280;73976;68.386;23.636;2024-02-14T15:46:13;98120.69;;;-13.89;80.20
83941;BME280;73976;68.386;23.636;2024-02-14T15:48:43;98099.84;;;-14.00;80.13
83941;BME280;73976;68.386;23.636;2024-02-14T15:51:11;98096.28;;;-13.93;81.15
83941;BME280;73976;68.386;23.636;2024-02-14T15:53:40;98090.44;;;-13.97;80.75
83941;BME280;73976;68.386;23.636;2024-02-14T15:56:08;98126.19;;;-13.72;81.02
83941;BME280;73976;68.386;23.636;2024-02-14T15:58:39;98093.50;;;-13.84;79.93
83941;BME280;73976;68.386;23.636;2024-02-14T16:01:07;98090.97;;;-13.84;80.92
83941;BME280;73976;68.386;23.636;2024-02-14T16:03:35;98112.47;;;-13.65;80.51
83941;BME280;73976;68.386;23.636;2024-02-14T16:06:03;98080.78;;;-13.83;80.17
83941;BME280;73976;68.386;23.636;2024-02-14T16:08:32;98082.41;;;-13.80;79.72
83941;BME280;73976;68.386;23.636;2024-02-14T16:11:00;98104.81;;;-13.63;79.56
83941;BME280;73976;68.386;23.636;2024-02-14T16:13:28;98062.25;;;-13.86;80.66
83941;BME280;73976;68.386;23.636;2024-02-14T16:15:58;98082.31;;;-13.77;80.44
83941;BME280;73976;68.386;23.636;2024-02-14T16:18:26;98082.13;;;-13.69;81.00
83941;BME280;73976;68.386;23.636;2024-02-14T16:20:54;98097.31;;;-13.68;80.11
83941;BME280;73976;68.386;23.636;2024-02-14T16:23:22;98097.31;;;-13.68;79.63
83941;BME280;73976;68.386;23.636;2024-02-14T16:25:50;98068.06;;;-13.81;80.01
83941;BME280;73976;68.386;23.636;2024-02-14T16:28:18;98099.78;;;-13.65;79.49
83941;BME280;73976;68.386;23.636;2024-02-14T16:30:46;98108.13;;;-13.60;79.47
83941;BME280;73976;68.386;23.636;2024-02-14T16:33:14;98095.50;;;-13.63;81.20
83941;BME280;73976;68.386;23.636;2024-02-14T16:35:42;98099.53;;;-13.56;80.79
83941;BME280;73976;68.386;23.636;2024-02-14T16:38:10;98091.31;;;-13.64;81.20
83941;BME280;73976;68.386;23.636;2024-02-14T16:40:38;98092.16;;;-13.65;80.51
83941;BME280;73976;68.386;23.636;2024-02-14T16:43:07;98071.16;;;-13.70;80.62
83941;BME280;73976;68.386;23.636;2024-02-14T16:45:37;98083.56;;;-13.59;81.58
83941;BME280;73976;68.386;23.636;2024-02-14T16:48:07;98084.88;;;-13.45;82.14
83941;BME280;73976;68.386;23.636;2024-02-14T16:50:37;98071.50;;;-13.51;80.81
83941;BME280;73976;68.386;23.636;2024-02-14T16:53:05;98049.94;;;-13.67;81.06
83941;BME280;73976;68.386;23.636;2024-02-14T16:55:33;98063.03;;;-13.50;80.84
83941;BME280;73976;68.386;23.636;2024-02-14T16:58:01;98079.41;;;-13.31;81.54
83941;BME280;73976;68.386;23.636;2024-02-14T17:00:29;98076.03;;;-13.32;81.57
83941;BME280;73976;68.386;23.636;2024-02-14T17:02:57;98066.72;;;-13.31;82.11
83941;BME280;73976;68.386;23.636;2024-02-14T17:05:38;98078.31;;;-13.23;81.30
83941;BME280;73976;68.386;23.636;2024-02-14T17:08:08;98047.25;;;-13.31;81.59
83941;BME280;73976;68.386;23.636;2024-02-14T17:10:36;98087.91;;;-13.03;82.30
83941;BME280;73976;68.386;23.636;2024-02-14T17:13:04;98071.00;;;-13.04;81.13
83941;BME280;73976;68.386;23.636;2024-02-14T17:15:32;98080.94;;;-12.97;81.81
83941;BME280;73976;68.386;23.636;2024-02-14T17:18:00;98070.88;;;-13.00;80.31
83941;BME280;73976;68.386;23.636;2024-02-14T17:20:28;98088.38;;;-12.91;81.91
83941;BME280;73976;68.386;23.636;2024-02-14T17:22:56;98058.41;;;-13.07;80.81
83941;BME280;73976;68.386;23.636;2024-02-14T17:25:24;98049.03;;;-13.05;81.20
83941;BME280;73976;68.386;23.636;2024-02-14T17:27:52;98079.69;;;-12.84;81.36
83941;BME280;73976;68.386;23.636;2024-02-14T17:30:20;98031.38;;;-13.10;80.85
83941;BME280;73976;68.386;23.636;2024-02-14T17:32:50;98059.63;;;-12.93;80.25
83941;BME280;73976;68.386;23.636;2024-02-14T17:35:18;98086.19;;;-12.74;80.16
83941;BME280;73976;68.386;23.636;2024-02-14T17:37:46;98044.28;;;-12.90;80.57
83941;BME280;73976;68.386;23.636;2024-02-14T17:40:14;98055.03;;;-12.80;80.18
83941;BME280;73976;68.386;23.636;2024-02-14T17:42:42;98056.78;;;-12.82;80.46
83941;BME280;73976;68.386;23.636;2024-02-14T17:45:11;98072.50;;;-12.70;80.92
83941;BME280;73976;68.386;23.636;2024-02-14T17:47:39;98070.66;;;-12.65;81.46
83941;BME280;73976;68.386;23.636;2024-02-14T17:50:07;98048.19;;;-12.78;80.83
83941;BME280;73976;68.386;23.636;2024-02-14T17:52:38;98057.25;;;-12.70;80.22
83941;BME280;73976;68.386;23.636;2024-02-14T17:55:07;98063.88;;;-12.66;80.65
83941;BME280;73976;68.386;23.636;2024-02-14T17:57:38;98070.66;;;-12.65;80.55
83941;BME280;73976;68.386;23.636;2024-02-14T18:00:06;98062.22;;;-12.67;79.97
83941;BME280;73976;68.386;23.636;2024-02-14T18:02:38;98031.31;;;-12.81;79.97
83941;BME280;73976;68.386;23.636;2024-02-14T18:05:07;98044.66;;;-12.74;80.88
83941;BME280;73976;68.386;23.636;2024-02-14T18:07:35;98049.00;;;-12.78;80.19
83941;BME280;73976;68.386;23.636;2024-02-14T18:10:03;98074.81;;;-12.62;79.59
83941;BME280;73976;68.386;23.636;2024-02-14T18:12:31;98035.63;;;-12.83;80.19
83941;BME280;73976;68.386;23.636;2024-02-14T18:14:59;98066.28;;;-12.61;80.59
83941;BME280;73976;68.386;23.636;2024-02-14T18:17:27;98052.16;;;-12.70;81.36
83941;BME280;73976;68.386;23.636;2024-02-14T18:19:56;98048.69;;;-12.67;80.94
83941;BME280;73976;68.386;23.636;2024-02-14T18:22:24;98040.63;;;-12.80;81.27
83941;BME280;73976;68.386;23.636;2024-02-14T18:24:52;98072.97;;;-12.57;81.06
83941;BME280;73976;68.386;23.636;2024-02-14T18:27:20;98043.75;;;-12.72;80.09
83941;BME280;73976;68.386;23.636;2024-02-14T18:29:50;98048.72;;;-12.69;80.70
83941;BME280;73976;68.386;23.636;2024-02-14T18:32:19;98066.84;;;-12.52;80.32
83941;BME280;73976;68.386;23.636;2024-02-14T18:34:47;98057.53;;;-12.51;79.62
83941;BME280;73976;68.386;23.636;2024-02-14T18:37:15;98031.91;;;-12.73;80.65
83941;BME280;73976;68.386;23.636;2024-02-14T18:39:43;98060.88;;;-12.51;79.71
83941;BME280;73976;68.386;23.636;2024-02-14T18:42:11;98030.16;;;-12.71;79.95
83941;BME280;73976;68.386;23.636;2024-02-14T18:44:39;98050.66;;;-12.49;79.38
83941;BME280;73976;68.386;23.636;2024-02-14T18:47:08;98061.69;;;-12.49;80.57
83941;BME280;73976;68.386;23.636;2024-02-14T18:49:36;98052.41;;;-12.50;80.23
83941;BME280;73976;68.386;23.636;2024-02-14T18:52:04;98056.63;;;-12.50;80.82
83941;BME280;73976;68.386;23.636;2024-02-14T18:54:33;98045.84;;;-12.58;80.01
83941;BME280;73976;68.386;23.636;2024-02-14T18:57:03;98022.44;;;-12.68;80.75
83941;BME280;73976;68.386;23.636;2024-02-14T18:59:36;98054.19;;;-12.53;80.69
83941;BME280;73976;68.386;23.636;2024-02-14T19:02:05;98050.72;;;-12.51;80.46
83941;BME280;73976;68.386;23.636;2024-02-14T19:04:33;98023.31;;;-12.69;80.38
83941;BME280;73976;68.386;23.636;2024-02-14T19:07:02;98050.81;;;-12.54;80.37
83941;BME280;73976;68.386;23.636;2024-02-14T19:09:30;98048.25;;;-12.54;79.98
83941;BME280;73976;68.386;23.636;2024-02-14T19:11:59;98044.25;;;-12.61;81.18
83941;BME280;73976;68.386;23.636;2024-02-14T19:14:27;98039.97;;;-12.59;81.04
83941;BME280;73976;68.386;23.636;2024-02-14T19:16:55;98056.81;;;-12.56;81.43
83941;BME280;73976;68.386;23.636;2024-02-14T19:19:23;98043.03;;;-12.75;81.06
83941;BME280;73976;68.386;23.636;2024-02-14T19:21:55;98054.59;;;-12.67;79.94
83941;BME280;73976;68.386;23.636;2024-02-14T19:24:23;98042.44;;;-12.85;80.97
83941;BME280;73976;68.386;23.636;2024-02-14T19:26:51;98024.88;;;-12.92;80.59
83941;BME280;73976;68.386;23.636;2024-02-14T19:29:19;98060.75;;;-12.74;81.40
83941;BME280;73976;68.386;23.636;2024-02-14T19:31:49;98044.28;;;-12.90;81.21
83941;BME280;73976;68.386;23.636;2024-02-14T19:34:17;98034.34;;;-12.97;80.04
83941;BME280;73976;68.386;23.636;2024-02-14T19:36:45;98043.28;;;-12.84;81.61
83941;BME280;73976;68.386;23.636;2024-02-14T19:39:14;98038.94;;;-12.81;80.62
83941;BME280;73976;68.386;23.636;2024-02-14T19:41:44;98020.66;;;-12.92;81.24
83941;BME280;73976;68.386;23.636;2024-02-14T19:44:13;98036.44;;;-12.82;82.10
83941;BME280;73976;68.386;23.636;2024-02-14T19:46:40;98054.47;;;-12.62;80.41
83941;BME280;73976;68.386;23.636;2024-02-14T19:49:10;98046.78;;;-12.61;80.96
83941;BME280;73976;68.386;23.636;2024-02-14T19:51:41;98028.56;;;-12.75;81.55
83941;BME280;73976;68.386;23.636;2024-02-14T19:54:09;97998.59;;;-12.91;81.61
83941;BME280;73976;68.386;23.636;2024-02-14T19:56:40;98023.50;;;-12.75;81.34
83941;BME280;73976;68.386;23.636;2024-02-14T19:59:09;98036.72;;;-12.64;81.25
83941;BME280;73976;68.386;23.636;2024-02-14T20:01:37;98042.00;;;-12.70;81.42
83941;BME280;73976;68.386;23.636;2024-02-14T20:04:05;98063.50;;;-12.54;80.03
83941;BME280;73976;68.386;23.636;2024-02-14T20:06:35;98042.00;;;-12.70;80.33
83941;BME280;73976;68.386;23.636;2024-02-14T20:09:03;98054.41;;;-12.61;80.90
83941;BME280;73976;68.386;23.636;2024-02-14T20:11:31;98052.72;;;-12.60;80.36
83941;BME280;73976;68.386;23.636;2024-02-14T20:13:59;98040.16;;;-12.65;81.45
83941;BME280;73976;68.386;23.636;2024-02-14T20:16:28;98036.75;;;-12.65;81.13
83941;BME280;73976;68.386;23.636;2024-02-14T20:18:59;98049.16;;;-12.55;80.75
83941;BME280;73976;68.386;23.636;2024-02-14T20:21:29;98039.16;;;-12.61;80.43
83941;BME280;73976;68.386;23.636;2024-02-14T20:23:59;98026.78;;;-12.71;81.23
83941;BME280;73976;68.386;23.636;2024-02-14T20:26:35;98066.72;;;-12.47;81.99
83941;BME280;73976;68.386;23.636;2024-02-14T20:29:03;98046.75;;;-12.59;80.99